sensor_id;sensor_type;location;lat;lon;timestamp;temperature;humidity
24410;DHT22;12543;53.364;-1.504;2022-08-30T00:02:25;15.30;98.40
24410;DHT22;12543;53.364;-1.504;2022-08-30T00:04:52;15.30;98.50
24410;DHT22;12543;53.364;-1.504;2022-08-30T00:07:20;15.20;98.40
24410;DHT22;12543;53.364;-1.504;2022-08-30T00:09:47;15.20;98.80
24410;DHT22;12543;53.364;-1.504;2022-08-30T00:12:14;15.20;98.40
24410;DHT22;12543;53.364;-1.504;2022-08-30T00:14:41;15.20;98.50
24410;DHT22;12543;53.364;-1.504;2022-08-30T00:17:08;15.10;98.40
24410;DHT22;12543;53.364;-1.504;2022-08-30T00:19:36;15.10;98.60
24410;DHT22;12543;53.364;-1.504;2022-08-30T00:22:04;15.10;98.50
24410;DHT22;12543;53.364;-1.504;2022-08-30T00:24:32;15.00;98.50
24410;DHT22;12543;53.364;-1.504;2022-08-30T00:26:59;15.00;98.30
24410;DHT22;12543;53.364;-1.504;2022-08-30T00:29:26;15.00;98.40
24410;DHT22;12543;53.364;-1.504;2022-08-30T00:31:53;15.00;98.40
24410;DHT22;12543;53.364;-1.504;2022-08-30T00:34:21;14.90;98.30
24410;DHT22;12543;53.364;-1.504;2022-08-30T00:36:48;14.90;98.40
24410;DHT22;12543;53.364;-1.504;2022-08-30T00:39:15;14.90;98.40
24410;DHT22;12543;53.364;-1.504;2022-08-30T00:41:42;14.90;98.50
24410;DHT22;12543;53.364;-1.504;2022-08-30T00:44:09;14.90;98.50
24410;DHT22;12543;53.364;-1.504;2022-08-30T00:46:36;14.80;98.60
24410;DHT22;12543;53.364;-1.504;2022-08-30T00:49:06;14.80;98.40
24410;DHT22;12543;53.364;-1.504;2022-08-30T00:51:34;14.80;98.40
24410;DHT22;12543;53.364;-1.504;2022-08-30T00:54:02;14.80;98.40
24410;DHT22;12543;53.364;-1.504;2022-08-30T00:56:29;14.80;98.50
24410;DHT22;12543;53.364;-1.504;2022-08-30T00:59:00;14.80;98.40
24410;DHT22;12543;53.364;-1.504;2022-08-30T01:01:28;14.80;98.40
24410;DHT22;12543;53.364;-1.504;2022-08-30T01:04:00;14.80;98.30
24410;DHT22;12543;53.364;-1.504;2022-08-30T01:06:28;14.80;98.30
24410;DHT22;12543;53.364;-1.504;2022-08-30T01:08:59;14.80;98.30
24410;DHT22;12543;53.364;-1.504;2022-08-30T01:11:27;14.80;98.30
24410;DHT22;12543;53.364;-1.504;2022-08-30T01:13:54;14.80;98.30
24410;DHT22;12543;53.364;-1.504;2022-08-30T01:16:23;14.80;98.30
24410;DHT22;12543;53.364;-1.504;2022-08-30T01:18:56;14.80;98.30
24410;DHT22;12543;53.364;-1.504;2022-08-30T01:21:53;14.80;98.30
24410;DHT22;12543;53.364;-1.504;2022-08-30T01:24:23;14.80;98.30
24410;DHT22;12543;53.364;-1.504;2022-08-30T01:26:50;14.80;98.40
24410;DHT22;12543;53.364;-1.504;2022-08-30T01:29:20;14.80;98.50
24410;DHT22;12543;53.364;-1.504;2022-08-30T01:31:48;14.80;98.40
24410;DHT22;12543;53.364;-1.504;2022-08-30T01:34:15;14.80;98.40
24410;DHT22;12543;53.364;-1.504;2022-08-30T01:36:43;14.80;98.40
24410;DHT22;12543;53.364;-1.504;2022-08-30T01:39:16;14.80;98.40
24410;DHT22;12543;53.364;-1.504;2022-08-30T01:41:43;14.70;98.40
24410;DHT22;12543;53.364;-1.504;2022-08-30T01:44:12;14.70;98.30
24410;DHT22;12543;53.364;-1.504;2022-08-30T01:46:42;14.70;98.40
24410;DHT22;12543;53.364;-1.504;2022-08-30T01:49:14;14.70;98.40
24410;DHT22;12543;53.364;-1.504;2022-08-30T01:51:42;14.70;98.50
24410;DHT22;12543;53.364;-1.504;2022-08-30T01:54:10;14.70;98.50
24410;DHT22;12543;53.364;-1.504;2022-08-30T01:56:37;14.60;98.30
24410;DHT22;12543;53.364;-1.504;2022-08-30T01:59:04;14.60;98.30
24410;DHT22;12543;53.364;-1.504;2022-08-30T02:01:33;14.60;98.30
24410;DHT22;12543;53.364;-1.504;2022-08-30T02:04:03;14.50;98.30
24410;DHT22;12543;53.364;-1.504;2022-08-30T02:06:31;14.50;98.20
24410;DHT22;12543;53.364;-1.504;2022-08-30T02:08:58;14.50;98.20
24410;DHT22;12543;53.364;-1.504;2022-08-30T02:11:25;14.50;98.20
24410;DHT22;12543;53.364;-1.504;2022-08-30T02:13:53;14.50;98.10
24410;DHT22;12543;53.364;-1.504;2022-08-30T02:16:22;14.40;98.20
24410;DHT22;12543;53.364;-1.504;2022-08-30T02:18:51;14.40;98.30
24410;DHT22;12543;53.364;-1.504;2022-08-30T02:21:19;14.40;98.30
24410;DHT22;12543;53.364;-1.504;2022-08-30T02:23:46;14.40;98.30
24410;DHT22;12543;53.364;-1.504;2022-08-30T02:26:14;14.40;98.40
24410;DHT22;12543;53.364;-1.504;2022-08-30T02:28:44;14.30;98.40
24410;DHT22;12543;53.364;-1.504;2022-08-30T02:31:17;14.30;98.40
24410;DHT22;12543;53.364;-1.504;2022-08-30T02:33:48;14.30;98.30
24410;DHT22;12543;53.364;-1.504;2022-08-30T02:36:17;14.30;98.30
24410;DHT22;12543;53.364;-1.504;2022-08-30T02:38:44;14.20;98.30
24410;DHT22;12543;53.364;-1.504;2022-08-30T02:41:12;14.20;98.20
24410;DHT22;12543;53.364;-1.504;2022-08-30T02:43:39;14.20;98.30
24410;DHT22;12543;53.364;-1.504;2022-08-30T02:46:06;14.20;98.30
24410;DHT22;12543;53.364;-1.504;2022-08-30T02:48:34;14.20;98.70
24410;DHT22;12543;53.364;-1.504;2022-08-30T02:51:08;14.10;98.30
24410;DHT22;12543;53.364;-1.504;2022-08-30T02:53:39;14.10;98.40
24410;DHT22;12543;53.364;-1.504;2022-08-30T02:56:06;14.10;98.30
24410;DHT22;12543;53.364;-1.504;2022-08-30T02:58:33;14.10;98.30
24410;DHT22;12543;53.364;-1.504;2022-08-30T03:01:00;14.10;98.30
24410;DHT22;12543;53.364;-1.504;2022-08-30T03:03:28;14.00;98.20
24410;DHT22;12543;53.364;-1.504;2022-08-30T03:05:55;14.00;98.30
24410;DHT22;12543;53.364;-1.504;2022-08-30T03:08:22;14.00;98.60
24410;DHT22;12543;53.364;-1.504;2022-08-30T03:10:50;14.00;98.50
24410;DHT22;12543;53.364;-1.504;2022-08-30T03:13:17;13.90;98.40
24410;DHT22;12543;53.364;-1.504;2022-08-30T03:15:44;13.90;98.30
24410;DHT22;12543;53.364;-1.504;2022-08-30T03:18:12;13.90;98.40
24410;DHT22;12543;53.364;-1.504;2022-08-30T03:20:40;13.90;98.30
24410;DHT22;12543;53.364;-1.504;2022-08-30T03:23:09;13.90;98.30
24410;DHT22;12543;53.364;-1.504;2022-08-30T03:25:47;13.90;98.20
24410;DHT22;12543;53.364;-1.504;2022-08-30T03:28:14;13.90;98.30
24410;DHT22;12543;53.364;-1.504;2022-08-30T03:30:41;13.80;98.40
24410;DHT22;12543;53.364;-1.504;2022-08-30T03:33:08;13.80;98.40
24410;DHT22;12543;53.364;-1.504;2022-08-30T03:35:37;13.80;98.10
24410;DHT22;12543;53.364;-1.504;2022-08-30T03:38:04;13.80;98.30
24410;DHT22;12543;53.364;-1.504;2022-08-30T03:40:32;13.80;98.30
24410;DHT22;12543;53.364;-1.504;2022-08-30T03:42:59;13.80;98.20
24410;DHT22;12543;53.364;-1.504;2022-08-30T03:45:26;13.80;98.60
24410;DHT22;12543;53.364;-1.504;2022-08-30T03:47:54;13.70;98.20
24410;DHT22;12543;53.364;-1.504;2022-08-30T03:50:21;13.70;98.30
24410;DHT22;12543;53.364;-1.504;2022-08-30T03:52:48;13.70;98.20
24410;DHT22;12543;53.364;-1.504;2022-08-30T03:55:15;13.70;98.10
24410;DHT22;12543;53.364;-1.504;2022-08-30T03:57:43;13.70;98.20
24410;DHT22;12543;53.364;-1.504;2022-08-30T04:00:11;13.70;98.10
24410;DHT22;12543;53.364;-1.504;2022-08-30T04:02:38;13.70;98.10
24410;DHT22;12543;53.364;-1.504;2022-08-30T04:05:07;13.60;98.10
24410;DHT22;12543;53.364;-1.504;2022-08-30T04:07:34;13.60;98.30
24410;DHT22;12543;53.364;-1.504;2022-08-30T04:10:04;13.60;98.30
24410;DHT22;12543;53.364;-1.504;2022-08-30T04:12:31;13.60;98.20
24410;DHT22;12543;53.364;-1.504;2022-08-30T04:14:58;13.60;98.10
24410;DHT22;12543;53.364;-1.504;2022-08-30T04:17:25;13.60;98.10
24410;DHT22;12543;53.364;-1.504;2022-08-30T04:19:53;13.60;98.30
24410;DHT22;12543;53.364;-1.504;2022-08-30T04:22:20;13.60;98.30
24410;DHT22;12543;53.364;-1.504;2022-08-30T04:24:47;13.50;98.40
24410;DHT22;12543;53.364;-1.504;2022-08-30T04:27:14;13.50;98.30
24410;DHT22;12543;53.364;-1.504;2022-08-30T04:29:46;13.50;98.50
24410;DHT22;12543;53.364;-1.504;2022-08-30T04:32:14;13.50;98.40
24410;DHT22;12543;53.364;-1.504;2022-08-30T04:34:42;13.50;98.30
24410;DHT22;12543;53.364;-1.504;2022-08-30T04:37:10;13.50;98.30
24410;DHT22;12543;53.364;-1.504;2022-08-30T04:39:37;13.50;98.20
24410;DHT22;12543;53.364;-1.504;2022-08-30T04:42:04;13.40;98.50
24410;DHT22;12543;53.364;-1.504;2022-08-30T04:44:32;13.50;98.20
24410;DHT22;12543;53.364;-1.504;2022-08-30T04:46:59;13.40;98.10
24410;DHT22;12543;53.364;-1.504;2022-08-30T04:49:26;13.40;98.10
24410;DHT22;12543;53.364;-1.504;2022-08-30T04:51:53;13.50;98.10
24410;DHT22;12543;53.364;-1.504;2022-08-30T04:54:21;13.40;98.00
24410;DHT22;12543;53.364;-1.504;2022-08-30T04:56:48;13.40;98.00
24410;DHT22;12543;53.364;-1.504;2022-08-30T04:59:15;13.40;98.00
24410;DHT22;12543;53.364;-1.504;2022-08-30T05:01:43;13.40;98.00
24410;DHT22;12543;53.364;-1.504;2022-08-30T05:04:13;13.40;98.00
24410;DHT22;12543;53.364;-1.504;2022-08-30T05:06:40;13.40;98.00
24410;DHT22;12543;53.364;-1.504;2022-08-30T05:09:07;13.40;98.00
24410;DHT22;12543;53.364;-1.504;2022-08-30T05:11:34;13.30;98.00
24410;DHT22;12543;53.364;-1.504;2022-08-30T05:14:01;13.30;98.00
24410;DHT22;12543;53.364;-1.504;2022-08-30T05:16:28;13.30;98.20
24410;DHT22;12543;53.364;-1.504;2022-08-30T05:18:55;13.30;98.10
24410;DHT22;12543;53.364;-1.504;2022-08-30T05:21:25;13.30;98.20
24410;DHT22;12543;53.364;-1.504;2022-08-30T05:23:55;13.30;98.20
24410;DHT22;12543;53.364;-1.504;2022-08-30T05:26:25;13.30;98.20
24410;DHT22;12543;53.364;-1.504;2022-08-30T05:28:53;13.30;98.50
24410;DHT22;12543;53.364;-1.504;2022-08-30T05:31:25;13.20;98.20
24410;DHT22;12543;53.364;-1.504;2022-08-30T05:33:53;13.30;98.10
24410;DHT22;12543;53.364;-1.504;2022-08-30T05:36:24;13.20;98.20
24410;DHT22;12543;53.364;-1.504;2022-08-30T05:38:52;13.20;98.10
24410;DHT22;12543;53.364;-1.504;2022-08-30T05:41:21;13.20;98.10
24410;DHT22;12543;53.364;-1.504;2022-08-30T05:43:55;13.20;98.10
24410;DHT22;12543;53.364;-1.504;2022-08-30T05:46:23;13.30;98.10
24410;DHT22;12543;53.364;-1.504;2022-08-30T05:48:50;13.20;98.10
24410;DHT22;12543;53.364;-1.504;2022-08-30T05:51:20;13.30;98.20
24410;DHT22;12543;53.364;-1.504;2022-08-30T05:53:49;13.30;98.20
24410;DHT22;12543;53.364;-1.504;2022-08-30T05:56:19;13.30;98.20
24410;DHT22;12543;53.364;-1.504;2022-08-30T05:58:50;13.30;98.30
24410;DHT22;12543;53.364;-1.504;2022-08-30T06:01:27;13.20;98.30
24410;DHT22;12543;53.364;-1.504;2022-08-30T06:03:56;13.30;98.40
24410;DHT22;12543;53.364;-1.504;2022-08-30T06:06:31;13.30;98.60
24410;DHT22;12543;53.364;-1.504;2022-08-30T06:08:59;13.30;98.50
24410;DHT22;12543;53.364;-1.504;2022-08-30T06:11:27;13.30;98.40
24410;DHT22;12543;53.364;-1.504;2022-08-30T06:13:55;13.30;98.50
24410;DHT22;12543;53.364;-1.504;2022-08-30T06:16:24;13.30;98.60
24410;DHT22;12543;53.364;-1.504;2022-08-30T06:18:52;13.30;98.50
24410;DHT22;12543;53.364;-1.504;2022-08-30T06:21:23;13.30;98.60
24410;DHT22;12543;53.364;-1.504;2022-08-30T06:23:51;13.30;98.60
24410;DHT22;12543;53.364;-1.504;2022-08-30T06:26:19;13.30;98.90
24410;DHT22;12543;53.364;-1.504;2022-08-30T06:28:46;13.40;98.80
24410;DHT22;12543;53.364;-1.504;2022-08-30T06:31:15;13.40;98.90
24410;DHT22;12543;53.364;-1.504;2022-08-30T06:33:43;13.40;98.90
24410;DHT22;12543;53.364;-1.504;2022-08-30T06:36:16;13.40;98.90
24410;DHT22;12543;53.364;-1.504;2022-08-30T06:38:46;13.40;99.10
24410;DHT22;12543;53.364;-1.504;2022-08-30T06:41:16;13.50;99.30
24410;DHT22;12543;53.364;-1.504;2022-08-30T06:43:45;13.50;99.20
24410;DHT22;12543;53.364;-1.504;2022-08-30T06:46:21;13.50;99.10
24410;DHT22;12543;53.364;-1.504;2022-08-30T06:48:49;13.50;99.30
24410;DHT22;12543;53.364;-1.504;2022-08-30T06:51:25;13.60;99.30
24410;DHT22;12543;53.364;-1.504;2022-08-30T06:53:53;13.60;99.50
24410;DHT22;12543;53.364;-1.504;2022-08-30T06:56:21;13.60;99.50
24410;DHT22;12543;53.364;-1.504;2022-08-30T06:58:48;13.70;99.50
24410;DHT22;12543;53.364;-1.504;2022-08-30T07:01:23;13.70;99.70
24410;DHT22;12543;53.364;-1.504;2022-08-30T07:03:51;13.70;99.60
24410;DHT22;12543;53.364;-1.504;2022-08-30T07:06:19;13.80;99.90
24410;DHT22;12543;53.364;-1.504;2022-08-30T07:08:47;13.80;99.90
24410;DHT22;12543;53.364;-1.504;2022-08-30T07:11:34;13.90;99.90
24410;DHT22;12543;53.364;-1.504;2022-08-30T07:14:03;14.00;99.90
24410;DHT22;12543;53.364;-1.504;2022-08-30T07:16:31;14.00;99.90
24410;DHT22;12543;53.364;-1.504;2022-08-30T07:18:59;14.10;99.90
24410;DHT22;12543;53.364;-1.504;2022-08-30T07:21:32;14.10;99.90
24410;DHT22;12543;53.364;-1.504;2022-08-30T07:24:00;14.20;99.90
24410;DHT22;12543;53.364;-1.504;2022-08-30T07:26:31;14.20;99.90
24410;DHT22;12543;53.364;-1.504;2022-08-30T07:29:00;14.30;99.90
24410;DHT22;12543;53.364;-1.504;2022-08-30T07:31:28;14.30;99.90
24410;DHT22;12543;53.364;-1.504;2022-08-30T07:33:55;14.40;99.90
24410;DHT22;12543;53.364;-1.504;2022-08-30T07:36:23;14.40;99.90
24410;DHT22;12543;53.364;-1.504;2022-08-30T07:38:51;14.50;99.90
24410;DHT22;12543;53.364;-1.504;2022-08-30T07:41:25;14.50;99.90
24410;DHT22;12543;53.364;-1.504;2022-08-30T07:43:53;14.60;99.90
24410;DHT22;12543;53.364;-1.504;2022-08-30T07:46:21;14.60;99.90
24410;DHT22;12543;53.364;-1.504;2022-08-30T07:48:49;14.70;99.90
24410;DHT22;12543;53.364;-1.504;2022-08-30T07:51:19;14.70;99.90
24410;DHT22;12543;53.364;-1.504;2022-08-30T07:53:47;14.80;99.90
24410;DHT22;12543;53.364;-1.504;2022-08-30T07:56:14;14.80;99.90
24410;DHT22;12543;53.364;-1.504;2022-08-30T07:58:42;14.90;99.90
24410;DHT22;12543;53.364;-1.504;2022-08-30T08:01:11;15.00;99.90
24410;DHT22;12543;53.364;-1.504;2022-08-30T08:03:40;15.00;99.90
24410;DHT22;12543;53.364;-1.504;2022-08-30T08:06:09;15.10;99.90
24410;DHT22;12543;53.364;-1.504;2022-08-30T08:08:37;15.10;99.90
24410;DHT22;12543;53.364;-1.504;2022-08-30T08:11:31;15.20;99.90
24410;DHT22;12543;53.364;-1.504;2022-08-30T08:14:00;15.30;99.90
24410;DHT22;12543;53.364;-1.504;2022-08-30T08:16:29;15.40;99.90
24410;DHT22;12543;53.364;-1.504;2022-08-30T08:18:56;15.40;99.90
24410;DHT22;12543;53.364;-1.504;2022-08-30T08:21:24;15.50;99.90
24410;DHT22;12543;53.364;-1.504;2022-08-30T08:23:51;15.60;99.90
24410;DHT22;12543;53.364;-1.504;2022-08-30T08:26:19;15.70;99.90
24410;DHT22;12543;53.364;-1.504;2022-08-30T08:28:46;15.80;99.90
24410;DHT22;12543;53.364;-1.504;2022-08-30T08:31:19;15.90;99.90
24410;DHT22;12543;53.364;-1.504;2022-08-30T08:33:49;16.00;99.90
24410;DHT22;12543;53.364;-1.504;2022-08-30T08:36:16;16.00;99.90
24410;DHT22;12543;53.364;-1.504;2022-08-30T08:38:44;16.10;99.90
24410;DHT22;12543;53.364;-1.504;2022-08-30T08:43:54;16.30;99.90
24410;DHT22;12543;53.364;-1.504;2022-08-30T08:46:35;16.40;99.90
24410;DHT22;12543;53.364;-1.504;2022-08-30T08:49:05;16.50;99.90
24410;DHT22;12543;53.364;-1.504;2022-08-30T08:51:37;16.50;99.90
24410;DHT22;12543;53.364;-1.504;2022-08-30T08:54:46;16.50;99.90
24410;DHT22;12543;53.364;-1.504;2022-08-30T08:57:14;16.60;99.90
24410;DHT22;12543;53.364;-1.504;2022-08-30T08:59:45;16.60;99.90
24410;DHT22;12543;53.364;-1.504;2022-08-30T09:02:23;16.60;99.90
24410;DHT22;12543;53.364;-1.504;2022-08-30T09:04:54;16.70;99.90
24410;DHT22;12543;53.364;-1.504;2022-08-30T09:07:28;16.70;99.90
24410;DHT22;12543;53.364;-1.504;2022-08-30T09:09:57;16.80;99.90
24410;DHT22;12543;53.364;-1.504;2022-08-30T09:12:27;16.90;99.90
24410;DHT22;12543;53.364;-1.504;2022-08-30T09:15:06;17.10;99.90
24410;DHT22;12543;53.364;-1.504;2022-08-30T09:18:10;17.30;99.90
24410;DHT22;12543;53.364;-1.504;2022-08-30T09:20:49;17.70;99.90
24410;DHT22;12543;53.364;-1.504;2022-08-30T09:23:27;18.20;99.90
24410;DHT22;12543;53.364;-1.504;2022-08-30T09:25:58;18.90;99.90
24410;DHT22;12543;53.364;-1.504;2022-08-30T09:28:29;19.50;99.90
24410;DHT22;12543;53.364;-1.504;2022-08-30T09:31:07;20.10;99.90
24410;DHT22;12543;53.364;-1.504;2022-08-30T09:34:08;20.60;99.90
24410;DHT22;12543;53.364;-1.504;2022-08-30T09:36:50;21.10;99.90
24410;DHT22;12543;53.364;-1.504;2022-08-30T09:39:26;21.70;99.90
24410;DHT22;12543;53.364;-1.504;2022-08-30T09:41:55;22.00;99.90
24410;DHT22;12543;53.364;-1.504;2022-08-30T09:44:37;22.40;99.90
24410;DHT22;12543;53.364;-1.504;2022-08-30T09:47:21;22.80;99.90
24410;DHT22;12543;53.364;-1.504;2022-08-30T09:50:03;23.10;99.90
24410;DHT22;12543;53.364;-1.504;2022-08-30T09:58:54;24.20;99.90
24410;DHT22;12543;53.364;-1.504;2022-08-30T10:01:23;24.70;99.90
24410;DHT22;12543;53.364;-1.504;2022-08-30T10:04:00;25.30;99.90
24410;DHT22;12543;53.364;-1.504;2022-08-30T10:06:45;25.90;99.90
24410;DHT22;12543;53.364;-1.504;2022-08-30T10:09:31;26.50;99.90
24410;DHT22;12543;53.364;-1.504;2022-08-30T10:12:23;27.00;99.90
24410;DHT22;12543;53.364;-1.504;2022-08-30T10:15:19;27.60;99.90
24410;DHT22;12543;53.364;-1.504;2022-08-30T10:17:52;28.20;99.90
24410;DHT22;12543;53.364;-1.504;2022-08-30T10:20:30;28.60;99.90
24410;DHT22;12543;53.364;-1.504;2022-08-30T10:23:08;29.10;99.40
24410;DHT22;12543;53.364;-1.504;2022-08-30T10:25:42;29.40;99.10
24410;DHT22;12543;53.364;-1.504;2022-08-30T10:28:42;29.70;98.50
24410;DHT22;12543;53.364;-1.504;2022-08-30T10:33:46;30.20;95.90
24410;DHT22;12543;53.364;-1.504;2022-08-30T10:36:28;30.50;96.20
24410;DHT22;12543;53.364;-1.504;2022-08-30T10:38:57;30.80;96.00
24410;DHT22;12543;53.364;-1.504;2022-08-30T10:46:48;31.30;94.20
24410;DHT22;12543;53.364;-1.504;2022-08-30T10:49:20;31.40;94.30
24410;DHT22;12543;53.364;-1.504;2022-08-30T10:52:03;31.60;94.00
24410;DHT22;12543;53.364;-1.504;2022-08-30T10:54:49;31.80;93.30
24410;DHT22;12543;53.364;-1.504;2022-08-30T10:57:18;31.90;92.90
24410;DHT22;12543;53.364;-1.504;2022-08-30T11:00:07;32.10;92.30
24410;DHT22;12543;53.364;-1.504;2022-08-30T11:05:38;32.40;92.30
24410;DHT22;12543;53.364;-1.504;2022-08-30T11:11:11;32.60;91.20
24410;DHT22;12543;53.364;-1.504;2022-08-30T11:13:44;32.70;90.80
24410;DHT22;12543;53.364;-1.504;2022-08-30T11:16:15;32.70;90.40
24410;DHT22;12543;53.364;-1.504;2022-08-30T11:18:51;32.80;89.50
24410;DHT22;12543;53.364;-1.504;2022-08-30T11:24:24;32.80;88.30
24410;DHT22;12543;53.364;-1.504;2022-08-30T11:26:56;32.80;87.50
24410;DHT22;12543;53.364;-1.504;2022-08-30T11:35:09;32.70;85.40
24410;DHT22;12543;53.364;-1.504;2022-08-30T11:37:41;32.70;83.40
24410;DHT22;12543;53.364;-1.504;2022-08-30T11:44:03;32.70;84.80
24410;DHT22;12543;53.364;-1.504;2022-08-30T11:52:14;32.40;81.10
24410;DHT22;12543;53.364;-1.504;2022-08-30T11:54:59;32.20;79.50
24410;DHT22;12543;53.364;-1.504;2022-08-30T12:00:38;31.90;78.20
24410;DHT22;12543;53.364;-1.504;2022-08-30T12:03:30;31.70;79.70
24410;DHT22;12543;53.364;-1.504;2022-08-30T12:06:04;31.50;79.60
24410;DHT22;12543;53.364;-1.504;2022-08-30T12:11:04;30.90;77.40
24410;DHT22;12543;53.364;-1.504;2022-08-30T12:18:51;29.60;77.20
24410;DHT22;12543;53.364;-1.504;2022-08-30T12:21:29;29.30;77.30
24410;DHT22;12543;53.364;-1.504;2022-08-30T12:24:20;28.90;77.70
24410;DHT22;12543;53.364;-1.504;2022-08-30T12:26:49;28.50;78.50
24410;DHT22;12543;53.364;-1.504;2022-08-30T12:39:42;27.00;77.40
24410;DHT22;12543;53.364;-1.504;2022-08-30T12:42:23;26.80;77.80
24410;DHT22;12543;53.364;-1.504;2022-08-30T12:44:56;26.50;77.40
24410;DHT22;12543;53.364;-1.504;2022-08-30T12:50:00;26.10;78.10
24410;DHT22;12543;53.364;-1.504;2022-08-30T12:52:33;25.90;78.30
24410;DHT22;12543;53.364;-1.504;2022-08-30T12:55:22;25.70;78.30
24410;DHT22;12543;53.364;-1.504;2022-08-30T12:58:00;25.60;77.90
24410;DHT22;12543;53.364;-1.504;2022-08-30T13:05:51;25.20;78.90
24410;DHT22;12543;53.364;-1.504;2022-08-30T13:08:30;25.10;78.90
24410;DHT22;12543;53.364;-1.504;2022-08-30T13:11:10;25.10;79.50
24410;DHT22;12543;53.364;-1.504;2022-08-30T13:13:44;25.00;80.00
24410;DHT22;12543;53.364;-1.504;2022-08-30T13:18:51;25.00;80.10
24410;DHT22;12543;53.364;-1.504;2022-08-30T13:24:02;25.00;81.30
24410;DHT22;12543;53.364;-1.504;2022-08-30T13:26:36;25.10;81.10
24410;DHT22;12543;53.364;-1.504;2022-08-30T13:29:06;25.10;82.00
24410;DHT22;12543;53.364;-1.504;2022-08-30T13:31:39;25.10;80.90
24410;DHT22;12543;53.364;-1.504;2022-08-30T13:34:06;25.10;81.30
24410;DHT22;12543;53.364;-1.504;2022-08-30T13:36:36;25.00;81.30
24410;DHT22;12543;53.364;-1.504;2022-08-30T13:39:10;24.90;80.70
24410;DHT22;12543;53.364;-1.504;2022-08-30T13:41:38;24.70;80.90
24410;DHT22;12543;53.364;-1.504;2022-08-30T13:44:06;24.60;80.80
24410;DHT22;12543;53.364;-1.504;2022-08-30T13:46:40;24.50;80.50
24410;DHT22;12543;53.364;-1.504;2022-08-30T13:49:14;24.30;81.00
24410;DHT22;12543;53.364;-1.504;2022-08-30T13:52:05;24.20;81.00
24410;DHT22;12543;53.364;-1.504;2022-08-30T13:54:46;24.10;81.50
24410;DHT22;12543;53.364;-1.504;2022-08-30T13:57:17;23.90;81.80
24410;DHT22;12543;53.364;-1.504;2022-08-30T14:00:07;23.80;81.80
24410;DHT22;12543;53.364;-1.504;2022-08-30T14:02:38;23.70;81.50
24410;DHT22;12543;53.364;-1.504;2022-08-30T14:05:13;23.60;82.10
24410;DHT22;12543;53.364;-1.504;2022-08-30T14:08:02;23.50;82.30
24410;DHT22;12543;53.364;-1.504;2022-08-30T14:10:30;23.30;81.90
24410;DHT22;12543;53.364;-1.504;2022-08-30T14:12:59;23.30;82.80
24410;DHT22;12543;53.364;-1.504;2022-08-30T14:15:36;23.20;83.70
24410;DHT22;12543;53.364;-1.504;2022-08-30T14:18:05;23.10;83.90
24410;DHT22;12543;53.364;-1.504;2022-08-30T14:20:33;23.00;84.00
24410;DHT22;12543;53.364;-1.504;2022-08-30T14:23:05;22.90;83.90
24410;DHT22;12543;53.364;-1.504;2022-08-30T14:25:36;22.80;83.10
24410;DHT22;12543;53.364;-1.504;2022-08-30T14:28:07;22.80;84.30
24410;DHT22;12543;53.364;-1.504;2022-08-30T14:30:35;22.70;83.90
24410;DHT22;12543;53.364;-1.504;2022-08-30T14:33:02;22.70;83.70
24410;DHT22;12543;53.364;-1.504;2022-08-30T14:35:29;22.60;83.40
24410;DHT22;12543;53.364;-1.504;2022-08-30T14:37:57;22.60;84.20
24410;DHT22;12543;53.364;-1.504;2022-08-30T14:40:25;22.60;84.20
24410;DHT22;12543;53.364;-1.504;2022-08-30T14:42:52;22.50;84.30
24410;DHT22;12543;53.364;-1.504;2022-08-30T14:45:20;22.50;84.10
24410;DHT22;12543;53.364;-1.504;2022-08-30T14:47:48;22.50;84.10
24410;DHT22;12543;53.364;-1.504;2022-08-30T14:50:16;22.50;84.60
24410;DHT22;12543;53.364;-1.504;2022-08-30T14:52:43;22.50;83.90
24410;DHT22;12543;53.364;-1.504;2022-08-30T14:55:11;22.40;83.40
24410;DHT22;12543;53.364;-1.504;2022-08-30T14:57:39;22.40;84.40
24410;DHT22;12543;53.364;-1.504;2022-08-30T15:00:08;22.40;84.20
24410;DHT22;12543;53.364;-1.504;2022-08-30T15:02:36;22.40;83.90
24410;DHT22;12543;53.364;-1.504;2022-08-30T15:05:04;22.40;84.10
24410;DHT22;12543;53.364;-1.504;2022-08-30T15:07:34;22.30;84.20
24410;DHT22;12543;53.364;-1.504;2022-08-30T15:10:02;22.40;84.50
24410;DHT22;12543;53.364;-1.504;2022-08-30T15:12:29;22.40;84.70
24410;DHT22;12543;53.364;-1.504;2022-08-30T15:14:56;22.30;84.30
24410;DHT22;12543;53.364;-1.504;2022-08-30T15:17:24;22.40;84.90
24410;DHT22;12543;53.364;-1.504;2022-08-30T15:19:51;22.30;84.20
24410;DHT22;12543;53.364;-1.504;2022-08-30T15:22:18;22.30;84.30
24410;DHT22;12543;53.364;-1.504;2022-08-30T15:24:45;22.30;84.90
24410;DHT22;12543;53.364;-1.504;2022-08-30T15:27:16;22.30;84.50
24410;DHT22;12543;53.364;-1.504;2022-08-30T15:29:44;22.20;84.30
24410;DHT22;12543;53.364;-1.504;2022-08-30T15:32:12;22.20;84.10
24410;DHT22;12543;53.364;-1.504;2022-08-30T15:34:39;22.20;84.40
24410;DHT22;12543;53.364;-1.504;2022-08-30T15:37:06;22.10;83.40
24410;DHT22;12543;53.364;-1.504;2022-08-30T15:39:35;22.10;84.50
24410;DHT22;12543;53.364;-1.504;2022-08-30T15:42:02;22.00;84.60
24410;DHT22;12543;53.364;-1.504;2022-08-30T15:44:30;22.00;84.40
24410;DHT22;12543;53.364;-1.504;2022-08-30T15:47:00;22.10;85.00
24410;DHT22;12543;53.364;-1.504;2022-08-30T15:49:27;22.10;85.40
24410;DHT22;12543;53.364;-1.504;2022-08-30T15:51:59;22.10;85.10
24410;DHT22;12543;53.364;-1.504;2022-08-30T15:58:08;22.10;85.40
24410;DHT22;12543;53.364;-1.504;2022-08-30T16:00:36;22.10;84.80
24410;DHT22;12543;53.364;-1.504;2022-08-30T16:03:09;22.10;85.30
24410;DHT22;12543;53.364;-1.504;2022-08-30T16:05:36;22.10;85.20
24410;DHT22;12543;53.364;-1.504;2022-08-30T16:08:03;22.10;84.60
24410;DHT22;12543;53.364;-1.504;2022-08-30T16:10:30;22.10;85.30
24410;DHT22;12543;53.364;-1.504;2022-08-30T16:12:59;22.00;85.00
24410;DHT22;12543;53.364;-1.504;2022-08-30T16:15:28;22.00;84.80
24410;DHT22;12543;53.364;-1.504;2022-08-30T16:17:55;21.90;85.20
24410;DHT22;12543;53.364;-1.504;2022-08-30T16:20:23;21.90;85.10
24410;DHT22;12543;53.364;-1.504;2022-08-30T16:22:51;21.80;85.20
24410;DHT22;12543;53.364;-1.504;2022-08-30T16:25:18;21.80;85.60
24410;DHT22;12543;53.364;-1.504;2022-08-30T16:27:46;21.70;85.70
24410;DHT22;12543;53.364;-1.504;2022-08-30T16:30:14;21.70;85.40
24410;DHT22;12543;53.364;-1.504;2022-08-30T16:32:41;21.60;85.30
24410;DHT22;12543;53.364;-1.504;2022-08-30T16:35:08;21.50;84.90
24410;DHT22;12543;53.364;-1.504;2022-08-30T16:37:35;21.50;85.20
24410;DHT22;12543;53.364;-1.504;2022-08-30T16:40:03;21.40;85.50
24410;DHT22;12543;53.364;-1.504;2022-08-30T16:42:31;21.30;85.70
24410;DHT22;12543;53.364;-1.504;2022-08-30T16:44:59;21.20;85.70
24410;DHT22;12543;53.364;-1.504;2022-08-30T16:47:32;21.10;86.00
24410;DHT22;12543;53.364;-1.504;2022-08-30T16:49:59;21.00;85.80
24410;DHT22;12543;53.364;-1.504;2022-08-30T16:52:26;21.00;86.80
24410;DHT22;12543;53.364;-1.504;2022-08-30T16:54:54;20.90;87.00
24410;DHT22;12543;53.364;-1.504;2022-08-30T16:57:21;20.80;86.20